Time;durP1;ratioP1;P1;durP2;ratioP2;P2;SDS_P1;SDS_P2;PMS_P1;PMS_P2;Temp;Humidity;BMP_temperature;BMP_pressure;BME280_temperature;BME280_humidity;BME280_pressure;Samples;Min_cycle;Max_cycle;Signal;HPM_P1;HPM_P2
2023/03/27 00:00:57;;;;;;;5.03;3.10;;;22.30;99.90;;;;;;5050314;28;20193;-77
2023/03/27 00:03:30;;;;;;;4.82;2.80;;;22.30;99.90;;;;;;5041989;28;20208;-78
2023/03/27 00:06:08;;;;;;;3.00;2.53;;;22.30;99.90;;;;;;5051421;28;20197;-77
2023/03/27 00:08:40;;;;;;;2.97;2.67;;;22.30;99.90;;;;;;5050563;28;20204;-78
2023/03/27 00:11:12;;;;;;;7.88;3.10;;;22.30;99.90;;;;;;5056996;28;20628;-78
2023/03/27 00:13:43;;;;;;;3.60;2.60;;;22.40;99.90;;;;;;5047934;28;20235;-78
2023/03/27 00:16:14;;;;;;;4.03;2.70;;;22.40;99.90;;;;;;5046390;28;20192;-77
2023/03/27 00:18:46;;;;;;;4.28;2.75;;;22.40;99.90;;;;;;5048620;28;20197;-77
2023/03/27 00:21:19;;;;;;;3.40;2.70;;;22.40;99.90;;;;;;5047043;28;20209;-78
2023/03/27 00:23:51;;;;;;;3.33;3.03;;;22.50;99.90;;;;;;5042264;28;20219;-78
2023/03/27 00:26:22;;;;;;;4.18;2.70;;;22.40;99.90;;;;;;5049398;28;20236;-77
2023/03/27 00:28:53;;;;;;;3.58;2.70;;;22.50;99.90;;;;;;5037080;28;20664;-77
2023/03/27 00:31:24;;;;;;;3.92;2.70;;;22.50;99.90;;;;;;5035192;28;20694;-77
2023/03/27 00:33:56;;;;;;;4.35;2.83;;;22.50;99.90;;;;;;5044752;28;20245;-78
2023/03/27 00:36:29;;;;;;;3.10;2.50;;;22.60;99.90;;;;;;5051250;28;20204;-77
2023/03/27 00:39:00;;;;;;;3.40;2.45;;;22.50;99.90;;;;;;5052031;28;20228;-76
2023/03/27 00:41:32;;;;;;;3.53;2.50;;;22.50;99.90;;;;;;5049213;28;20576;-77
2023/03/27 00:44:03;;;;;;;2.78;2.45;;;22.50;99.90;;;;;;5049640;28;20232;-77
2023/03/27 00:46:40;;;;;;;3.95;2.60;;;22.50;99.90;;;;;;5036766;28;20197;-77
2023/03/27 00:49:14;;;;;;;2.78;2.53;;;22.50;99.90;;;;;;5047412;28;20570;-78
2023/03/27 00:51:51;;;;;;;2.88;2.55;;;22.50;99.90;;;;;;5043716;28;20698;-77
2023/03/27 00:54:28;;;;;;;2.85;2.47;;;22.60;99.90;;;;;;5043894;28;20232;-77
2023/03/27 00:57:06;;;;;;;2.65;2.40;;;22.60;99.90;;;;;;5051202;28;20266;-78
2023/03/27 00:59:40;;;;;;;3.50;2.58;;;22.70;99.90;;;;;;5049613;28;20551;-78
2023/03/27 01:02:12;;;;;;;4.10;2.65;;;22.80;99.90;;;;;;5050020;28;20200;-78
2023/03/27 01:04:44;;;;;;;5.22;2.42;;;22.90;99.90;;;;;;5051535;28;20188;-78
2023/03/27 01:07:18;;;;;;;2.95;2.33;;;22.90;99.90;;;;;;5051848;28;20720;-78
2023/03/27 01:09:50;;;;;;;2.50;2.30;;;22.80;99.90;;;;;;5053384;28;20199;-78
2023/03/27 01:12:42;;;;;;;2.95;2.20;;;22.80;99.90;;;;;;5043343;28;20196;-77
2023/03/27 01:15:33;;;;;;;3.45;2.40;;;22.80;99.90;;;;;;5027602;28;20782;-78
2023/03/27 01:18:14;;;;;;;2.80;2.25;;;22.90;99.90;;;;;;5024571;28;20220;-77
2023/03/27 01:21:18;;;;;;;2.20;2.00;;;22.90;99.90;;;;;;5025690;28;20208;-79
2023/03/27 01:24:33;;;;;;;2.33;2.10;;;22.90;99.90;;;;;;4950738;28;21607;-79
2023/03/27 01:27:10;;;;;;;3.05;2.38;;;23.00;99.90;;;;;;4965813;28;20598;-78
2023/03/27 01:30:06;;;;;;;2.88;2.20;;;22.90;99.90;;;;;;5002401;28;20212;-79
2023/03/27 01:33:15;;;;;;;2.40;2.20;;;23.00;99.90;;;;;;5002785;28;20201;-78
2023/03/27 01:36:01;;;;;;;2.38;2.17;;;23.10;99.90;;;;;;5006789;28;20201;-79
2023/03/27 01:39:01;;;;;;;2.50;2.30;;;23.20;99.90;;;;;;5008959;28;20203;-77
2023/03/27 01:41:39;;;;;;;3.45;2.65;;;23.20;99.90;;;;;;5022738;28;20255;-77
2023/03/27 01:44:15;;;;;;;3.10;2.40;;;23.30;99.90;;;;;;5029320;28;20205;-79
2023/03/27 01:46:50;;;;;;;4.25;2.85;;;23.30;99.90;;;;;;5025845;28;20208;-77
2023/03/27 01:49:26;;;;;;;3.90;2.50;;;23.40;99.90;;;;;;5031353;28;20201;-78
2023/03/27 01:52:01;;;;;;;3.15;2.33;;;23.40;99.90;;;;;;5022046;28;20578;-78
2023/03/27 01:54:37;;;;;;;2.90;2.28;;;23.40;99.90;;;;;;5043131;28;20279;-78
2023/03/27 01:57:16;;;;;;;2.70;2.45;;;23.50;99.90;;;;;;5021692;28;20193;-78
2023/03/27 01:59:53;;;;;;;3.28;2.30;;;23.50;99.90;;;;;;5029459;28;20211;-78
2023/03/27 02:02:28;;;;;;;3.13;2.50;;;23.50;99.90;;;;;;5019720;28;20622;-78
2023/03/27 02:05:05;;;;;;;4.68;2.40;;;23.60;99.90;;;;;;5030915;28;20310;-78
2023/03/27 02:07:41;;;;;;;2.45;2.10;;;23.60;99.90;;;;;;5024864;28;20193;-78
2023/03/27 02:10:17;;;;;;;2.30;2.00;;;23.70;99.90;;;;;;5030122;28;20211;-78
2023/03/27 02:12:56;;;;;;;2.83;2.10;;;23.80;99.90;;;;;;5031641;28;20193;-77
2023/03/27 02:15:32;;;;;;;3.55;1.90;;;23.80;99.90;;;;;;5025489;28;20200;-78
2023/03/27 02:18:06;;;;;;;3.38;2.03;;;23.90;99.90;;;;;;5011451;28;20628;-78
2023/03/27 02:20:39;;;;;;;2.22;1.95;;;23.90;99.90;;;;;;5018974;28;20204;-78
2023/03/27 02:23:11;;;;;;;2.92;1.80;;;24.00;99.90;;;;;;5020695;28;20206;-77
2023/03/27 02:25:45;;;;;;;4.18;1.90;;;24.00;99.90;;;;;;5029273;28;20569;-77
2023/03/27 02:28:42;;;;;;;3.78;1.90;;;24.10;99.90;;;;;;5044717;28;20642;-77
2023/03/27 02:31:21;;;;;;;2.28;1.88;;;24.10;99.90;;;;;;5035787;28;20674;-78
2023/03/27 02:34:12;;;;;;;2.03;1.80;;;24.10;99.90;;;;;;5049355;28;20220;-77
2023/03/27 02:36:55;;;;;;;3.42;2.00;;;24.10;99.90;;;;;;5031615;28;20201;-77
2023/03/27 02:39:36;;;;;;;2.97;1.88;;;24.10;99.90;;;;;;5050496;28;20542;-77
2023/03/27 02:42:17;;;;;;;3.20;1.90;;;24.10;99.90;;;;;;5050230;28;20189;-78
2023/03/27 02:44:52;;;;;;;3.42;1.90;;;24.10;99.90;;;;;;5051002;28;20215;-78
2023/03/27 02:47:29;;;;;;;2.15;1.88;;;24.20;99.90;;;;;;5050971;28;20226;-76
2023/03/27 02:50:05;;;;;;;2.92;1.90;;;24.20;99.90;;;;;;5049861;28;20261;-78
2023/03/27 02:52:41;;;;;;;3.47;1.83;;;24.30;99.90;;;;;;5050856;28;20196;-77
2023/03/27 02:55:18;;;;;;;1.88;1.77;;;24.30;99.90;;;;;;5052319;28;20228;-78
2023/03/27 02:57:55;;;;;;;1.65;1.55;;;24.20;99.90;;;;;;5034415;28;20208;-78
2023/03/27 03:00:32;;;;;;;1.70;1.60;;;24.30;99.90;;;;;;5038864;28;20188;-77
2023/03/27 03:03:11;;;;;;;1.83;1.60;;;24.30;99.90;;;;;;5034043;28;20204;-79
2023/03/27 03:05:42;;;;;;;2.45;1.80;;;24.30;99.90;;;;;;5042974;28;20295;-79
2023/03/27 03:08:13;;;;;;;2.30;1.60;;;24.20;99.90;;;;;;5054117;28;20196;-77
2023/03/27 03:10:48;;;;;;;2.92;1.70;;;24.20;99.90;;;;;;5054259;28;20201;-77
2023/03/27 03:13:21;;;;;;;3.00;1.85;;;24.10;99.90;;;;;;5060078;28;20216;-77
2023/03/27 03:15:52;;;;;;;2.20;1.83;;;24.10;99.90;;;;;;5054309;28;20189;-77
2023/03/27 03:18:23;;;;;;;1.80;1.65;;;24.10;99.90;;;;;;5058579;28;20225;-77
2023/03/27 03:20:55;;;;;;;1.88;1.70;;;24.00;99.90;;;;;;5042912;28;20194;-77
2023/03/27 03:23:26;;;;;;;1.90;1.70;;;24.10;99.90;;;;;;5056747;28;20549;-77
2023/03/27 03:26:01;;;;;;;2.95;1.75;;;24.10;99.90;;;;;;5048920;28;20229;-77
2023/03/27 03:28:35;;;;;;;2.63;1.95;;;24.10;99.90;;;;;;5055822;28;20677;-78
2023/03/27 03:31:09;;;;;;;2.63;1.90;;;24.10;99.90;;;;;;5055650;28;20223;-77
2023/03/27 03:33:41;;;;;;;2.17;1.70;;;24.10;99.90;;;;;;5053857;28;20278;-77
2023/03/27 03:36:13;;;;;;;4.22;2.15;;;24.20;99.90;;;;;;5060249;28;20196;-78
2023/03/27 03:38:48;;;;;;;4.43;1.92;;;24.10;99.90;;;;;;5055944;28;20536;-77
2023/03/27 03:41:19;;;;;;;3.33;1.92;;;24.20;99.90;;;;;;5052626;28;20189;-77
2023/03/27 03:43:52;;;;;;;2.22;2.03;;;24.20;99.90;;;;;;5053949;28;20205;-77
2023/03/27 03:46:23;;;;;;;2.80;2.00;;;24.30;99.90;;;;;;5053727;28;20212;-77
2023/03/27 03:48:54;;;;;;;5.05;1.73;;;24.30;99.90;;;;;;5052822;28;20197;-77
2023/03/27 03:51:25;;;;;;;2.50;2.00;;;24.30;99.90;;;;;;5055271;28;20212;-77
2023/03/27 03:53:56;;;;;;;2.70;1.67;;;24.30;99.90;;;;;;5073530;28;20220;-78
2023/03/27 03:56:28;;;;;;;2.10;1.70;;;24.30;99.90;;;;;;5063992;28;20686;-77
2023/03/27 03:59:01;;;;;;;1.92;1.45;;;24.30;99.90;;;;;;5044815;28;20201;-78
2023/03/27 04:01:32;;;;;;;2.30;1.80;;;24.20;99.90;;;;;;5049540;28;20196;-78
2023/03/27 04:04:04;;;;;;;2.65;1.70;;;24.20;99.90;;;;;;5055143;28;20209;-80
2023/03/27 04:06:36;;;;;;;2.83;1.90;;;24.20;99.90;;;;;;5055149;28;20628;-77
2023/03/27 04:09:07;;;;;;;1.55;1.45;;;24.20;99.90;;;;;;5048909;28;20197;-77
2023/03/27 04:11:38;;;;;;;5.63;2.00;;;24.20;99.90;;;;;;5053694;28;20197;-77
2023/03/27 04:14:11;;;;;;;2.10;1.90;;;24.20;99.90;;;;;;5055113;28;20212;-78
2023/03/27 04:16:43;;;;;;;2.65;2.10;;;24.20;99.90;;;;;;5050226;28;20221;-77
2023/03/27 04:19:17;;;;;;;2.42;2.00;;;24.20;99.90;;;;;;5051405;28;20192;-78
2023/03/27 04:21:48;;;;;;;4.25;1.83;;;24.10;99.90;;;;;;5053410;28;20659;-78
2023/03/27 04:24:19;;;;;;;3.05;1.70;;;24.10;99.90;;;;;;5051781;28;20671;-77
2023/03/27 04:26:50;;;;;;;2.60;1.88;;;24.20;99.90;;;;;;5058596;28;20224;-77
2023/03/27 04:29:29;;;;;;;2.65;2.10;;;24.20;99.90;;;;;;5050512;28;20205;-77
2023/03/27 04:32:02;;;;;;;4.70;2.03;;;24.20;99.90;;;;;;5050254;28;20215;-77
2023/03/27 04:34:37;;;;;;;2.58;1.75;;;24.30;99.90;;;;;;5047699;28;20618;-77
2023/03/27 04:37:08;;;;;;;3.03;2.03;;;24.30;99.90;;;;;;5050622;28;20192;-77
2023/03/27 04:39:41;;;;;;;2.10;1.70;;;24.30;99.90;;;;;;5051342;28;20281;-77
2023/03/27 04:42:14;;;;;;;2.15;1.60;;;24.30;99.90;;;;;;5055620;28;20227;-77
2023/03/27 04:44:47;;;;;;;2.30;1.88;;;24.30;99.90;;;;;;5063692;28;20231;-77
2023/03/27 04:47:19;;;;;;;2.90;1.95;;;24.30;99.90;;;;;;5054950;28;20196;-77
2023/03/27 04:49:50;;;;;;;2.92;1.77;;;24.30;99.90;;;;;;5052460;28;20220;-76
2023/03/27 04:52:21;;;;;;;2.15;1.80;;;24.30;99.90;;;;;;5053949;28;20200;-77
2023/03/27 04:54:52;;;;;;;2.17;1.90;;;24.40;99.90;;;;;;5052054;28;20599;-76
2023/03/27 04:57:26;;;;;;;2.47;1.73;;;24.40;99.90;;;;;;5051201;28;20593;-77
2023/03/27 04:59:59;;;;;;;2.10;1.60;;;24.50;99.90;;;;;;5053327;28;20287;-77
2023/03/27 05:02:35;;;;;;;1.80;1.70;;;24.50;99.90;;;;;;5041155;28;20743;-77
2023/03/27 05:05:06;;;;;;;3.78;1.85;;;24.50;99.90;;;;;;5051222;28;20200;-76
2023/03/27 05:07:37;;;;;;;2.10;1.65;;;24.50;99.90;;;;;;5046827;28;20569;-77
2023/03/27 05:10:10;;;;;;;1.77;1.67;;;24.50;99.90;;;;;;5046964;28;20700;-77
2023/03/27 05:12:45;;;;;;;1.88;1.50;;;24.60;99.90;;;;;;5045888;28;20194;-76
2023/03/27 05:15:20;;;;;;;3.17;1.60;;;24.60;99.90;;;;;;5046886;28;20219;-77
2023/03/27 05:17:53;;;;;;;3.60;1.95;;;24.70;99.90;;;;;;5056405;28;20239;-76
2023/03/27 05:20:24;;;;;;;2.08;1.58;;;24.80;99.90;;;;;;5049270;28;20553;-76
2023/03/27 05:22:57;;;;;;;1.77;1.60;;;24.80;99.90;;;;;;5046356;28;20200;-77
2023/03/27 05:25:28;;;;;;;1.90;1.40;;;24.80;99.90;;;;;;5046815;28;20219;-77
2023/03/27 05:27:59;;;;;;;2.33;1.83;;;24.80;99.90;;;;;;5027109;28;20197;-76
2023/03/27 05:30:32;;;;;;;2.85;1.60;;;25.00;99.90;;;;;;5026626;28;20190;-77
2023/03/27 05:33:03;;;;;;;2.03;1.58;;;25.00;99.90;;;;;;5021980;28;20193;-76
2023/03/27 05:35:35;;;;;;;1.60;1.50;;;25.10;99.90;;;;;;5021146;28;20309;-78
2023/03/27 05:38:06;;;;;;;2.60;1.45;;;25.10;99.90;;;;;;5025208;28;20675;-77
2023/03/27 05:40:38;;;;;;;1.45;1.35;;;25.30;99.90;;;;;;5025878;28;20637;-77
2023/03/27 05:43:09;;;;;;;2.88;1.40;;;25.50;99.90;;;;;;5018706;28;20224;-77
2023/03/27 05:45:42;;;;;;;1.70;1.30;;;25.70;99.90;;;;;;5018756;28;20277;-76
2023/03/27 05:48:14;;;;;;;2.38;1.38;;;25.70;99.90;;;;;;5029974;28;20204;-78
2023/03/27 05:50:45;;;;;;;1.55;1.45;;;25.70;99.90;;;;;;5036121;28;20204;-77
2023/03/27 05:53:16;;;;;;;1.50;1.40;;;25.70;99.90;;;;;;5037155;28;20671;-77
2023/03/27 05:55:47;;;;;;;5.82;1.45;;;25.70;99.90;;;;;;5026455;28;20217;-77
2023/03/27 05:58:18;;;;;;;1.60;1.50;;;25.70;99.90;;;;;;5027784;28;20200;-77
2023/03/27 06:00:53;;;;;;;1.00;1.00;;;25.80;99.90;;;;;;5017405;28;20205;-77
2023/03/27 06:03:29;;;;;;;3.70;1.50;;;25.70;99.90;;;;;;5032436;28;20204;-77
2023/03/27 06:06:00;;;;;;;3.00;1.30;;;25.80;99.90;;;;;;5028157;28;20193;-77
2023/03/27 06:08:32;;;;;;;4.30;1.77;;;25.80;99.90;;;;;;5025717;28;20672;-77
2023/03/27 06:11:03;;;;;;;1.42;1.30;;;25.90;99.90;;;;;;5027669;28;20268;-77
2023/03/27 06:13:34;;;;;;;3.20;1.67;;;26.00;99.90;;;;;;5025871;28;20213;-76
2023/03/27 06:16:09;;;;;;;2.92;1.30;;;26.10;99.90;;;;;;5030658;28;20221;-76
2023/03/27 06:18:40;;;;;;;2.03;1.48;;;26.30;99.90;;;;;;5029031;28;20212;-77
2023/03/27 06:21:11;;;;;;;2.30;1.50;;;26.50;99.90;;;;;;5022447;28;20649;-77
2023/03/27 06:23:42;;;;;;;2.35;1.48;;;26.60;99.90;;;;;;5026957;28;20207;-77
2023/03/27 06:26:14;;;;;;;1.65;1.33;;;26.70;99.90;;;;;;5026582;28;20254;-77
2023/03/27 06:28:45;;;;;;;1.60;1.50;;;26.80;99.90;;;;;;5043032;28;20193;-77
2023/03/27 06:31:18;;;;;;;1.65;1.27;;;26.70;99.90;;;;;;5036288;28;20204;-76
2023/03/27 06:33:50;;;;;;;1.15;1.10;;;26.60;99.90;;;;;;5045742;28;20713;-76
2023/03/27 06:36:22;;;;;;;3.15;1.45;;;26.60;99.90;;;;;;5039567;28;20768;-76
2023/03/27 06:38:53;;;;;;;2.05;1.85;;;26.50;99.90;;;;;;5050194;28;20196;-76
2023/03/27 06:41:24;;;;;;;2.78;1.88;;;26.40;99.90;;;;;;5052108;28;20208;-77
2023/03/27 06:43:55;;;;;;;2.35;2.10;;;26.30;99.90;;;;;;5070879;28;20200;-77
2023/03/27 06:46:28;;;;;;;1.90;1.70;;;26.10;99.90;;;;;;5044524;28;20201;-76
2023/03/27 06:48:59;;;;;;;1.60;1.50;;;26.00;99.90;;;;;;5039517;28;20197;-75
2023/03/27 06:51:30;;;;;;;4.82;1.40;;;25.90;99.90;;;;;;5044326;28;20201;-78
2023/03/27 06:54:03;;;;;;;1.52;1.42;;;25.80;99.90;;;;;;5048321;28;20201;-75
2023/03/27 06:56:34;;;;;;;1.83;1.30;;;25.80;99.90;;;;;;5038714;28;20296;-76
2023/03/27 06:59:05;;;;;;;1.85;1.60;;;25.80;99.90;;;;;;5050327;28;20201;-75
2023/03/27 07:01:39;;;;;;;1.60;1.50;;;26.00;99.90;;;;;;5047933;28;20205;-76
2023/03/27 07:04:10;;;;;;;2.45;1.58;;;26.00;99.90;;;;;;5049159;28;20200;-77
2023/03/27 07:06:41;;;;;;;2.50;1.55;;;26.10;99.90;;;;;;5050170;28;20203;-77
2023/03/27 07:09:13;;;;;;;2.13;1.50;;;26.10;99.90;;;;;;5046783;28;20196;-77
2023/03/27 07:11:44;;;;;;;2.83;1.58;;;26.10;99.90;;;;;;5040108;28;20254;-76
2023/03/27 07:14:15;;;;;;;2.35;1.45;;;26.10;99.90;;;;;;5044585;28;20244;-76
2023/03/27 07:16:48;;;;;;;1.70;1.60;;;26.00;99.90;;;;;;5054179;28;20221;-76
2023/03/27 07:19:19;;;;;;;3.35;1.80;;;25.90;99.90;;;;;;5050958;28;20596;-75
2023/03/27 07:21:51;;;;;;;4.05;1.50;;;25.90;99.90;;;;;;5049483;28;20201;-77
2023/03/27 07:24:22;;;;;;;3.33;1.70;;;25.80;99.90;;;;;;5048250;28;20283;-77
2023/03/27 07:26:53;;;;;;;1.92;1.67;;;25.70;99.90;;;;;;5048125;28;20224;-76
2023/03/27 07:29:24;;;;;;;2.58;1.80;;;25.60;99.90;;;;;;5047989;28;20207;-78
2023/03/27 07:31:57;;;;;;;3.72;1.90;;;25.50;99.90;;;;;;5047565;28;20243;-78
2023/03/27 07:34:28;;;;;;;3.45;1.70;;;25.40;99.90;;;;;;5048513;28;20279;-78
2023/03/27 07:37:00;;;;;;;3.45;2.05;;;25.30;99.90;;;;;;5046698;28;20787;-76
2023/03/27 07:39:31;;;;;;;3.10;2.10;;;25.30;99.90;;;;;;5048517;28;20572;-76
2023/03/27 07:42:02;;;;;;;3.38;2.28;;;25.20;99.90;;;;;;5053498;28;20570;-78
2023/03/27 07:44:33;;;;;;;2.72;1.92;;;25.30;99.90;;;;;;5037718;28;20197;-77
2023/03/27 07:47:06;;;;;;;2.55;1.70;;;25.20;99.90;;;;;;5051182;28;20200;-78
2023/03/27 07:49:37;;;;;;;3.08;1.63;;;25.10;99.90;;;;;;5053075;28;20202;-78
2023/03/27 07:52:09;;;;;;;1.92;1.77;;;25.00;99.90;;;;;;5033887;28;20259;-78
2023/03/27 07:54:41;;;;;;;3.08;2.22;;;25.00;99.90;;;;;;5051364;28;20668;-78
2023/03/27 07:57:14;;;;;;;3.30;2.03;;;25.00;99.90;;;;;;5046595;28;20201;-77
2023/03/27 07:59:45;;;;;;;2.58;2.00;;;24.90;99.90;;;;;;5047633;28;20729;-77
2023/03/27 08:02:18;;;;;;;1.92;1.70;;;24.90;99.90;;;;;;5054366;28;20554;-78
2023/03/27 08:04:50;;;;;;;3.20;2.00;;;24.90;99.90;;;;;;5051390;28;20209;-78
2023/03/27 08:07:23;;;;;;;3.03;2.10;;;24.90;99.90;;;;;;5052917;28;20256;-78
2023/03/27 08:09:56;;;;;;;2.13;1.80;;;24.80;99.90;;;;;;5056465;28;20219;-79
2023/03/27 08:12:27;;;;;;;2.35;2.00;;;24.80;99.90;;;;;;5056182;28;20279;-78
2023/03/27 08:14:58;;;;;;;4.60;2.33;;;24.70;99.90;;;;;;5056127;28;20709;-79
2023/03/27 08:17:32;;;;;;;5.63;2.60;;;24.70;99.90;;;;;;5054903;28;20224;-78
2023/03/27 08:20:07;;;;;;;4.55;2.40;;;24.70;99.90;;;;;;5039434;28;20255;-77
2023/03/27 08:22:39;;;;;;;6.75;3.65;;;24.70;99.90;;;;;;5049448;28;20197;-78
2023/03/27 08:25:11;;;;;;;3.88;3.10;;;24.60;99.90;;;;;;5056907;28;20197;-79
2023/03/27 08:27:42;;;;;;;4.78;2.80;;;24.60;99.90;;;;;;5053505;28;20307;-78
2023/03/27 08:30:14;;;;;;;5.85;4.90;;;24.50;99.90;;;;;;5034260;28;20204;-78
2023/03/27 08:32:47;;;;;;;4.25;3.83;;;24.50;99.90;;;;;;5036533;28;20197;-77
2023/03/27 08:35:19;;;;;;;4.65;3.10;;;24.50;99.90;;;;;;5053405;28;20265;-78
2023/03/27 08:37:51;;;;;;;2.90;2.25;;;24.50;99.90;;;;;;5054201;28;20211;-78
2023/03/27 08:40:26;;;;;;;4.00;2.60;;;24.50;99.90;;;;;;5056189;28;20224;-82
2023/03/27 08:43:03;;;;;;;3.45;2.53;;;24.50;99.90;;;;;;5050731;28;20257;-79
2023/03/27 08:45:42;;;;;;;3.85;2.47;;;24.50;99.90;;;;;;5054458;28;20252;-78
2023/03/27 08:48:22;;;;;;;2.70;2.20;;;24.50;99.90;;;;;;5054362;28;20196;-79
2023/03/27 08:50:58;;;;;;;3.00;2.45;;;24.50;99.90;;;;;;5053654;28;20193;-77
2023/03/27 08:53:39;;;;;;;2.58;2.13;;;24.50;99.90;;;;;;5050823;28;20200;-78
2023/03/27 08:56:14;;;;;;;2.75;2.35;;;24.50;99.90;;;;;;5049266;28;20239;-79
2023/03/27 08:58:46;;;;;;;3.70;2.10;;;24.50;99.90;;;;;;5050103;28;20235;-81
2023/03/27 09:01:24;;;;;;;2.80;2.17;;;24.40;99.90;;;;;;5057262;28;20188;-78
2023/03/27 09:04:03;;;;;;;4.22;2.17;;;24.30;99.90;;;;;;5053775;28;20196;-78
2023/03/27 09:06:40;;;;;;;5.15;3.42;;;24.30;99.90;;;;;;5050697;28;20196;-79
2023/03/27 09:09:20;;;;;;;3.97;2.70;;;24.30;99.90;;;;;;5050647;28;20664;-78
2023/03/27 09:11:58;;;;;;;6.07;2.83;;;24.30;99.90;;;;;;5051086;28;20197;-77
2023/03/27 09:14:34;;;;;;;5.22;2.92;;;24.30;99.90;;;;;;5050438;28;20196;-77
2023/03/27 09:17:11;;;;;;;4.10;2.38;;;24.30;99.90;;;;;;5049764;28;20232;-80
2023/03/27 09:19:50;;;;;;;3.30;2.50;;;24.30;99.90;;;;;;5050378;28;20196;-79
2023/03/27 09:22:26;;;;;;;2.10;1.90;;;24.30;99.90;;;;;;5040240;28;20193;-77
2023/03/27 09:25:02;;;;;;;2.63;2.15;;;24.30;99.90;;;;;;5047486;28;20571;-77
2023/03/27 09:27:36;;;;;;;4.45;2.20;;;24.30;99.90;;;;;;5036756;28;20707;-78
2023/03/27 09:30:22;;;;;;;3.55;2.17;;;24.30;99.90;;;;;;5050555;28;20236;-78
2023/03/27 09:32:58;;;;;;;2.38;2.17;;;24.20;99.90;;;;;;5052341;28;20200;-78
2023/03/27 09:35:31;;;;;;;4.32;2.17;;;24.20;99.90;;;;;;5045826;28;20216;-78
2023/03/27 09:38:05;;;;;;;3.63;2.42;;;24.20;99.90;;;;;;5049545;28;20675;-80
2023/03/27 09:40:46;;;;;;;3.08;2.50;;;24.20;99.90;;;;;;5038636;28;20728;-78
2023/03/27 09:43:21;;;;;;;3.88;2.38;;;24.20;99.90;;;;;;5044577;28;20721;-79
2023/03/27 09:45:55;;;;;;;3.35;2.25;;;24.20;99.90;;;;;;5044172;28;20659;-78
2023/03/27 09:48:34;;;;;;;4.35;2.20;;;24.20;99.90;;;;;;5042176;28;20205;-78
2023/03/27 09:51:28;;;;;;;4.07;2.03;;;24.20;99.90;;;;;;5046465;28;20220;-78
2023/03/27 09:54:02;;;;;;;1.90;1.80;;;24.20;99.90;;;;;;5043977;28;20261;-80
2023/03/27 09:56:37;;;;;;;3.10;1.75;;;24.10;99.90;;;;;;5048141;28;20307;-80
2023/03/27 09:59:30;;;;;;;1.73;1.60;;;24.20;99.90;;;;;;5051319;28;20192;-79
2023/03/27 10:02:02;;;;;;;1.95;1.40;;;24.10;99.90;;;;;;5046815;28;20199;-78
2023/03/27 10:04:33;;;;;;;2.90;1.65;;;24.10;99.90;;;;;;5044304;28;20204;-78
2023/03/27 10:07:10;;;;;;;2.88;1.70;;;24.10;99.90;;;;;;5053376;28;20196;-79
2023/03/27 10:09:41;;;;;;;1.63;1.52;;;24.10;99.90;;;;;;5050301;28;20196;-79
2023/03/27 10:12:19;;;;;;;2.50;1.92;;;24.10;99.90;;;;;;5036545;28;20193;-78
2023/03/27 10:14:53;;;;;;;3.05;1.50;;;24.10;99.90;;;;;;5050522;28;20192;-78
2023/03/27 10:17:29;;;;;;;2.88;1.80;;;24.10;99.90;;;;;;5050094;28;20232;-76
2023/03/27 10:20:07;;;;;;;1.60;1.50;;;24.10;99.90;;;;;;5051746;28;20192;-77
2023/03/27 10:22:42;;;;;;;1.60;1.50;;;24.10;99.90;;;;;;5055493;28;20721;-80
2023/03/27 10:25:21;;;;;;;2.28;1.60;;;24.10;99.90;;;;;;5050506;28;20199;-78
2023/03/27 10:27:54;;;;;;;3.70;1.50;;;24.00;99.90;;;;;;5049637;28;20290;-77
2023/03/27 10:30:34;;;;;;;2.58;1.40;;;24.00;99.90;;;;;;5051166;28;20655;-77
2023/03/27 10:33:06;;;;;;;2.05;1.63;;;24.00;99.90;;;;;;5046534;28;20200;-78
2023/03/27 10:35:38;;;;;;;1.70;1.60;;;23.90;99.90;;;;;;5048930;28;20212;-77
2023/03/27 10:38:16;;;;;;;1.85;1.40;;;23.90;99.90;;;;;;5050744;28;20193;-78
2023/03/27 10:40:51;;;;;;;1.52;1.40;;;23.90;99.90;;;;;;5050701;28;20275;-79
2023/03/27 10:43:30;;;;;;;3.00;1.90;;;23.90;99.90;;;;;;5050337;28;20204;-78
2023/03/27 10:46:05;;;;;;;1.77;1.48;;;23.90;99.90;;;;;;5049912;28;20207;-79
2023/03/27 10:48:46;;;;;;;2.47;1.40;;;23.90;99.90;;;;;;5050316;28;20254;-78
2023/03/27 10:51:26;;;;;;;2.58;1.40;;;23.90;99.90;;;;;;5050752;28;20646;-79
2023/03/27 10:54:08;;;;;;;2.47;1.40;;;23.90;99.90;;;;;;5049131;28;20200;-79
2023/03/27 10:56:48;;;;;;;1.75;1.50;;;23.90;99.90;;;;;;5050837;28;20220;-79
2023/03/27 10:59:23;;;;;;;5.13;1.90;;;23.90;99.90;;;;;;5050831;28;20242;-78
2023/03/27 11:01:59;;;;;;;2.25;1.52;;;23.80;99.90;;;;;;5048886;28;20667;-78
2023/03/27 11:04:41;;;;;;;1.88;1.70;;;23.70;99.90;;;;;;5045117;28;20403;-78
2023/03/27 11:07:19;;;;;;;2.38;1.80;;;23.70;99.90;;;;;;5050423;28;20668;-77
2023/03/27 11:10:03;;;;;;;2.90;1.80;;;23.70;99.90;;;;;;5049316;28;20193;-79
2023/03/27 11:12:38;;;;;;;2.50;1.70;;;23.70;99.90;;;;;;5050306;28;20224;-79
2023/03/27 11:15:16;;;;;;;2.30;1.80;;;23.70;99.90;;;;;;5052294;28;20204;-79
2023/03/27 11:17:54;;;;;;;1.80;1.70;;;23.70;99.90;;;;;;5052354;28;20573;-76
2023/03/27 11:20:30;;;;;;;2.80;1.80;;;23.70;99.90;;;;;;5059227;28;20200;-79
2023/03/27 11:23:06;;;;;;;2.00;1.80;;;23.70;99.90;;;;;;5053321;28;20199;-78
2023/03/27 11:25:47;;;;;;;2.00;1.90;;;23.70;99.90;;;;;;5054046;28;20608;-76
2023/03/27 11:28:28;;;;;;;2.47;1.75;;;23.70;99.90;;;;;;5053960;28;20215;-79
2023/03/27 11:31:06;;;;;;;2.55;1.75;;;23.70;99.90;;;;;;5061649;28;20203;-78
2023/03/27 11:33:42;;;;;;;2.30;1.63;;;23.70;99.90;;;;;;5065604;28;20200;-78
2023/03/27 11:36:45;;;;;;;2.42;1.83;;;23.70;99.90;;;;;;5056131;28;20231;-77
2023/03/27 11:39:22;;;;;;;2.88;1.90;;;23.70;99.90;;;;;;5049400;28;20231;-78
2023/03/27 11:42:04;;;;;;;1.98;1.70;;;23.70;99.90;;;;;;5053061;28;20203;-77
2023/03/27 11:44:35;;;;;;;2.10;1.70;;;23.60;99.90;;;;;;5051825;28;20197;-78
2023/03/27 11:47:33;;;;;;;2.03;1.60;;;23.60;99.90;;;;;;5053545;28;20280;-78
2023/03/27 11:50:20;;;;;;;2.00;1.45;;;23.70;99.90;;;;;;5045911;28;20193;-78
2023/03/27 11:53:01;;;;;;;2.30;1.65;;;23.70;99.90;;;;;;5051521;28;20205;-78
2023/03/27 11:55:40;;;;;;;2.45;1.67;;;23.70;99.90;;;;;;5042738;28;20193;-81
2023/03/27 11:58:27;;;;;;;3.50;1.70;;;23.60;99.90;;;;;;5037638;28;20659;-79
2023/03/27 12:01:05;;;;;;;2.97;1.50;;;23.60;99.90;;;;;;5052769;28;20262;-79
2023/03/27 12:04:07;;;;;;;3.38;1.42;;;23.70;99.90;;;;;;5050288;28;20196;-78
2023/03/27 12:06:47;;;;;;;1.58;1.35;;;23.70;99.90;;;;;;5050480;28;20685;-78
2023/03/27 12:09:44;;;;;;;1.65;1.40;;;23.70;99.90;;;;;;5052866;28;20197;-78
2023/03/27 12:12:35;;;;;;;2.38;1.48;;;23.70;99.90;;;;;;5056141;28;20200;-77
2023/03/27 12:15:26;;;;;;;2.75;1.50;;;23.70;99.90;;;;;;5054682;28;20208;-77
2023/03/27 12:18:05;;;;;;;2.92;1.50;;;23.80;99.90;;;;;;5057057;28;20236;-75
2023/03/27 12:20:57;;;;;;;2.55;1.40;;;23.70;99.90;;;;;;5056500;28;20722;-78
2023/03/27 12:23:42;;;;;;;2.38;1.58;;;23.70;99.90;;;;;;5055481;28;20200;-78
2023/03/27 12:26:32;;;;;;;1.75;1.38;;;23.70;99.90;;;;;;5053595;28;20286;-77
2023/03/27 12:32:15;;;;;;;2.80;1.33;;;23.70;99.90;;;;;;5037138;28;20181;-77
2023/03/27 12:34:57;;;;;;;1.50;1.13;;;23.70;99.90;;;;;;5051979;28;20200;-78
2023/03/27 12:37:33;;;;;;;2.08;1.17;;;23.70;99.90;;;;;;5053095;28;20224;-79
2023/03/27 12:40:15;;;;;;;2.83;1.50;;;23.70;99.90;;;;;;5052642;28;20203;-76
2023/03/27 12:42:53;;;;;;;2.17;1.40;;;23.70;99.90;;;;;;5051097;28;20207;-76
2023/03/27 12:45:26;;;;;;;3.53;1.58;;;23.70;99.90;;;;;;5068867;28;20566;-77
2023/03/27 12:48:29;;;;;;;1.52;1.38;;;23.70;99.90;;;;;;5055217;28;20207;-76
2023/03/27 12:51:00;;;;;;;2.03;1.42;;;23.80;99.90;;;;;;4973432;28;20206;-77
2023/03/27 12:53:50;;;;;;;2.33;1.42;;;23.80;99.90;;;;;;5031024;28;20202;-76
2023/03/27 12:56:41;;;;;;;3.13;1.73;;;23.70;99.90;;;;;;5049538;28;20298;-77
2023/03/27 12:59:25;;;;;;;1.67;1.30;;;23.70;99.90;;;;;;5051510;28;20243;-77
2023/03/27 13:02:21;;;;;;;2.20;1.70;;;23.70;99.90;;;;;;5054643;28;20207;-77
2023/03/27 13:05:24;;;;;;;2.05;1.38;;;23.70;99.90;;;;;;5056232;28;20192;-75
2023/03/27 13:08:20;;;;;;;3.72;1.60;;;23.70;99.90;;;;;;5054741;28;20201;-75
2023/03/27 13:10:59;;;;;;;2.72;1.65;;;23.70;99.90;;;;;;5044054;28;20235;-78
2023/03/27 13:14:11;;;;;;;1.95;1.40;;;23.80;99.90;;;;;;5053194;28;20214;-76
2023/03/27 13:17:13;;;;;;;3.45;1.60;;;23.80;99.90;;;;;;5035872;28;20310;-77
2023/03/27 13:19:55;;;;;;;3.08;1.40;;;23.70;99.90;;;;;;5053236;28;20219;-77
2023/03/27 13:22:36;;;;;;;2.10;1.65;;;23.70;99.90;;;;;;5050557;28;20196;-77
2023/03/27 13:25:33;;;;;;;6.82;1.73;;;23.80;99.90;;;;;;5051973;28;20255;-77
2023/03/27 13:28:35;;;;;;;3.78;1.48;;;23.80;99.90;;;;;;5052135;28;20200;-78
2023/03/27 13:31:08;;;;;;;5.57;1.27;;;23.70;99.90;;;;;;5008902;28;20647;-78
2023/03/27 13:33:47;;;;;;;4.18;1.50;;;23.70;99.90;;;;;;5044080;28;20250;-78
2023/03/27 13:36:23;;;;;;;2.60;1.58;;;23.70;99.90;;;;;;5047558;28;20553;-77
2023/03/27 13:39:23;;;;;;;3.67;1.70;;;23.70;99.90;;;;;;5050600;28;20192;-77